sensor_id;sensor_type;location;lat;lon;timestamp;pressure;altitude;pressure_sealevel;temperature;humidity
18985;BME280;9626;52.552;13.436;2022-12-15T00:00:59;99833.16;;;-7.72;100.00
18985;BME280;9626;52.552;13.436;2022-12-15T00:03:44;99830.34;;;-7.78;100.00
18985;BME280;9626;52.552;13.436;2022-12-15T00:06:29;99837.75;;;-7.86;100.00
18985;BME280;9626;52.552;13.436;2022-12-15T00:09:14;99833.53;;;-7.84;100.00
18985;BME280;9626;52.552;13.436;2022-12-15T00:11:59;99826.59;;;-7.87;100.00
18985;BME280;9626;52.552;13.436;2022-12-15T00:14:44;99827.28;;;-7.91;100.00
18985;BME280;9626;52.552;13.436;2022-12-15T00:17:29;99828.22;;;-7.89;100.00
18985;BME280;9626;52.552;13.436;2022-12-15T00:20:14;99842.53;;;-7.95;100.00
18985;BME280;9626;52.552;13.436;2022-12-15T00:23:06;99841.03;;;-7.90;100.00
18985;BME280;9626;52.552;13.436;2022-12-15T00:25:50;99847.53;;;-7.77;100.00
18985;BME280;9626;52.552;13.436;2022-12-15T00:28:35;99845.16;;;-7.73;100.00
18985;BME280;9626;52.552;13.436;2022-12-15T00:31:19;99846.53;;;-7.60;100.00
18985;BME280;9626;52.552;13.436;2022-12-15T00:34:04;99844.97;;;-7.77;100.00
18985;BME280;9626;52.552;13.436;2022-12-15T00:36:49;99845.03;;;-7.76;100.00
18985;BME280;9626;52.552;13.436;2022-12-15T00:39:33;99844.75;;;-7.61;100.00
18985;BME280;9626;52.552;13.436;2022-12-15T00:41:59;99846.53;;;-7.60;100.00
18985;BME280;9626;52.552;13.436;2022-12-15T00:44:25;99838.31;;;-7.72;100.00
18985;BME280;9626;52.552;13.436;2022-12-15T00:46:51;99841.25;;;-7.84;100.00
18985;BME280;9626;52.552;13.436;2022-12-15T00:49:22;99846.91;;;-7.93;100.00
18985;BME280;9626;52.552;13.436;2022-12-15T00:52:07;99850.19;;;-7.97;100.00
18985;BME280;9626;52.552;13.436;2022-12-15T00:54:51;99857.81;;;-7.99;100.00
18985;BME280;9626;52.552;13.436;2022-12-15T00:57:36;99848.78;;;-8.10;100.00
18985;BME280;9626;52.552;13.436;2022-12-15T01:00:22;99855.13;;;-7.81;100.00
18985;BME280;9626;52.552;13.436;2022-12-15T01:03:15;99852.41;;;-7.62;100.00
18985;BME280;9626;52.552;13.436;2022-12-15T01:06:04;99851.75;;;-7.79;100.00
18985;BME280;9626;52.552;13.436;2022-12-15T01:08:49;99853.47;;;-7.78;100.00
18985;BME280;9626;52.552;13.436;2022-12-15T01:11:33;99854.06;;;-7.86;100.00
18985;BME280;9626;52.552;13.436;2022-12-15T01:14:18;99863.03;;;-7.97;100.00
18985;BME280;9626;52.552;13.436;2022-12-15T01:17:03;99861.94;;;-8.02;100.00
18985;BME280;9626;52.552;13.436;2022-12-15T01:19:47;99862.44;;;-8.11;100.00
18985;BME280;9626;52.552;13.436;2022-12-15T01:22:32;99858.06;;;-8.13;100.00
18985;BME280;9626;52.552;13.436;2022-12-15T01:24:58;99858.19;;;-8.10;100.00
18985;BME280;9626;52.552;13.436;2022-12-15T01:27:24;99861.81;;;-8.05;100.00
18985;BME280;9626;52.552;13.436;2022-12-15T01:29:50;99864.56;;;-8.01;100.00
18985;BME280;9626;52.552;13.436;2022-12-15T01:32:16;99863.84;;;-7.98;100.00
18985;BME280;9626;52.552;13.436;2022-12-15T01:34:42;99860.00;;;-8.08;100.00
18985;BME280;9626;52.552;13.436;2022-12-15T01:37:08;99861.50;;;-8.13;100.00
18985;BME280;9626;52.552;13.436;2022-12-15T01:39:34;99856.91;;;-8.20;100.00
18985;BME280;9626;52.552;13.436;2022-12-15T01:42:18;99860.34;;;-8.20;100.00
18985;BME280;9626;52.552;13.436;2022-12-15T01:44:48;99866.41;;;-8.19;100.00
18985;BME280;9626;52.552;13.436;2022-12-15T01:47:15;99863.19;;;-8.13;100.00
18985;BME280;9626;52.552;13.436;2022-12-15T01:49:42;99867.88;;;-8.24;100.00
18985;BME280;9626;52.552;13.436;2022-12-15T01:52:14;99862.94;;;-8.20;100.00
18985;BME280;9626;52.552;13.436;2022-12-15T01:54:52;99863.44;;;-8.07;100.00
18985;BME280;9626;52.552;13.436;2022-12-15T01:57:24;99864.34;;;-7.86;100.00
18985;BME280;9626;52.552;13.436;2022-12-15T01:59:53;99860.00;;;-7.87;100.00
18985;BME280;9626;52.552;13.436;2022-12-15T02:02:24;99865.66;;;-7.74;100.00
18985;BME280;9626;52.552;13.436;2022-12-15T02:04:52;99871.41;;;-7.80;100.00
18985;BME280;9626;52.552;13.436;2022-12-15T02:07:21;99873.00;;;-7.84;100.00
18985;BME280;9626;52.552;13.436;2022-12-15T02:09:49;99869.47;;;-7.86;100.00
18985;BME280;9626;52.552;13.436;2022-12-15T02:15:49;99862.06;;;-7.99;100.00
18985;BME280;9626;52.552;13.436;2022-12-15T02:18:27;99866.34;;;-8.00;100.00
18985;BME280;9626;52.552;13.436;2022-12-15T02:21:17;99865.25;;;-8.05;100.00
18985;BME280;9626;52.552;13.436;2022-12-15T02:31:58;99875.88;;;-7.97;100.00
18985;BME280;9626;52.552;13.436;2022-12-15T02:34:50;99890.91;;;-8.06;100.00
18985;BME280;9626;52.552;13.436;2022-12-15T02:37:22;99895.66;;;-8.16;100.00
18985;BME280;9626;52.552;13.436;2022-12-15T02:39:50;99905.41;;;-8.28;100.00
18985;BME280;9626;52.552;13.436;2022-12-15T02:42:17;99908.88;;;-8.27;100.00
18985;BME280;9626;52.552;13.436;2022-12-15T02:55:37;99930.53;;;-8.01;100.00
18985;BME280;9626;52.552;13.436;2022-12-15T02:58:27;99937.06;;;-7.88;100.00
18985;BME280;9626;52.552;13.436;2022-12-15T03:01:15;99936.44;;;-7.83;100.00
18985;BME280;9626;52.552;13.436;2022-12-15T03:03:43;99936.59;;;-7.79;100.00
18985;BME280;9626;52.552;13.436;2022-12-15T03:06:10;99943.22;;;-7.85;100.00
18985;BME280;9626;52.552;13.436;2022-12-15T03:08:36;99940.19;;;-7.74;100.00
18985;BME280;9626;52.552;13.436;2022-12-15T03:11:02;99940.97;;;-7.56;100.00
18985;BME280;9626;52.552;13.436;2022-12-15T03:13:28;99947.19;;;-7.51;100.00
18985;BME280;9626;52.552;13.436;2022-12-15T03:15:54;99949.03;;;-7.48;100.00
18985;BME280;9626;52.552;13.436;2022-12-15T03:18:22;99945.25;;;-7.35;100.00
18985;BME280;9626;52.552;13.436;2022-12-15T03:20:48;99936.72;;;-7.34;100.00
18985;BME280;9626;52.552;13.436;2022-12-15T03:23:15;99939.66;;;-7.25;100.00
18985;BME280;9626;52.552;13.436;2022-12-15T03:25:43;99944.94;;;-7.22;100.00
18985;BME280;9626;52.552;13.436;2022-12-15T03:28:09;99948.44;;;-7.20;100.00
18985;BME280;9626;52.552;13.436;2022-12-15T03:30:36;99941.28;;;-7.27;100.00
18985;BME280;9626;52.552;13.436;2022-12-15T03:33:02;99940.72;;;-7.41;100.00
18985;BME280;9626;52.552;13.436;2022-12-15T03:35:29;99948.00;;;-7.52;100.00
18985;BME280;9626;52.552;13.436;2022-12-15T03:37:55;99937.59;;;-7.55;100.00
18985;BME280;9626;52.552;13.436;2022-12-15T03:40:21;99933.94;;;-7.60;100.00
18985;BME280;9626;52.552;13.436;2022-12-15T03:42:47;99930.19;;;-7.68;100.00
18985;BME280;9626;52.552;13.436;2022-12-15T03:45:31;99933.56;;;-7.69;100.00
18985;BME280;9626;52.552;13.436;2022-12-15T03:48:14;99938.97;;;-7.63;100.00
18985;BME280;9626;52.552;13.436;2022-12-15T03:50:40;99939.09;;;-7.60;100.00
18985;BME280;9626;52.552;13.436;2022-12-15T03:53:06;99936.47;;;-7.61;100.00
18985;BME280;9626;52.552;13.436;2022-12-15T03:55:32;99947.50;;;-7.64;100.00
18985;BME280;9626;52.552;13.436;2022-12-15T03:57:59;99954.47;;;-7.61;100.00
18985;BME280;9626;52.552;13.436;2022-12-15T04:00:26;99960.41;;;-7.62;100.00
18985;BME280;9626;52.552;13.436;2022-12-15T04:02:52;99962.31;;;-7.58;100.00
18985;BME280;9626;52.552;13.436;2022-12-15T04:05:30;99958.88;;;-7.59;100.00
18985;BME280;9626;52.552;13.436;2022-12-15T04:07:58;99961.69;;;-7.53;100.00
18985;BME280;9626;52.552;13.436;2022-12-15T04:10:26;99964.94;;;-7.57;100.00
18985;BME280;9626;52.552;13.436;2022-12-15T04:13:00;99963.94;;;-7.60;100.00
18985;BME280;9626;52.552;13.436;2022-12-15T04:15:27;99969.22;;;-7.57;100.00
18985;BME280;9626;52.552;13.436;2022-12-15T04:17:53;99968.34;;;-7.58;100.00
18985;BME280;9626;52.552;13.436;2022-12-15T04:20:20;99965.00;;;-7.55;100.00
18985;BME280;9626;52.552;13.436;2022-12-15T04:22:48;99967.38;;;-7.60;100.00
18985;BME280;9626;52.552;13.436;2022-12-15T04:25:17;99968.88;;;-7.65;100.00
18985;BME280;9626;52.552;13.436;2022-12-15T04:28:02;99972.47;;;-7.61;100.00
18985;BME280;9626;52.552;13.436;2022-12-15T04:33:43;99982.63;;;-7.65;100.00
18985;BME280;9626;52.552;13.436;2022-12-15T04:36:29;99981.13;;;-7.59;100.00
18985;BME280;9626;52.552;13.436;2022-12-15T04:39:14;99989.38;;;-7.67;100.00
18985;BME280;9626;52.552;13.436;2022-12-15T04:42:00;99991.78;;;-7.71;100.00
18985;BME280;9626;52.552;13.436;2022-12-15T04:44:48;99993.09;;;-7.81;100.00
18985;BME280;9626;52.552;13.436;2022-12-15T04:47:35;99996.53;;;-7.81;100.00
18985;BME280;9626;52.552;13.436;2022-12-15T04:50:19;99998.13;;;-7.83;100.00
18985;BME280;9626;52.552;13.436;2022-12-15T04:53:09;100007.47;;;-7.85;100.00
18985;BME280;9626;52.552;13.436;2022-12-15T04:55:54;100016.56;;;-7.93;100.00
18985;BME280;9626;52.552;13.436;2022-12-15T04:58:39;100016.44;;;-7.96;100.00
18985;BME280;9626;52.552;13.436;2022-12-15T05:01:24;100019.53;;;-8.03;100.00
18985;BME280;9626;52.552;13.436;2022-12-15T05:04:08;100021.09;;;-8.07;100.00
18985;BME280;9626;52.552;13.436;2022-12-15T05:06:53;100024.72;;;-8.02;100.00
18985;BME280;9626;52.552;13.436;2022-12-15T05:09:37;100029.97;;;-8.00;100.00
18985;BME280;9626;52.552;13.436;2022-12-15T05:12:22;100031.03;;;-8.15;100.00
18985;BME280;9626;52.552;13.436;2022-12-15T05:15:07;100042.78;;;-8.20;100.00
18985;BME280;9626;52.552;13.436;2022-12-15T05:17:51;100038.91;;;-8.10;100.00
18985;BME280;9626;52.552;13.436;2022-12-15T05:20:36;100039.16;;;-8.05;100.00
18985;BME280;9626;52.552;13.436;2022-12-15T05:23:21;100027.84;;;-8.09;100.00
18985;BME280;9626;52.552;13.436;2022-12-15T05:26:06;100029.59;;;-8.08;100.00
18985;BME280;9626;52.552;13.436;2022-12-15T05:28:50;100036.78;;;-8.01;100.00
18985;BME280;9626;52.552;13.436;2022-12-15T05:31:35;100038.91;;;-8.10;100.00
18985;BME280;9626;52.552;13.436;2022-12-15T05:34:34;100048.81;;;-8.19;100.00
18985;BME280;9626;52.552;13.436;2022-12-15T05:37:02;100058.78;;;-8.25;100.00
18985;BME280;9626;52.552;13.436;2022-12-15T05:39:28;100054.06;;;-8.16;100.00
18985;BME280;9626;52.552;13.436;2022-12-15T05:41:55;100056.34;;;-8.04;100.00
18985;BME280;9626;52.552;13.436;2022-12-15T05:44:22;100057.59;;;-8.14;100.00
18985;BME280;9626;52.552;13.436;2022-12-15T05:46:49;100060.63;;;-8.23;100.00
18985;BME280;9626;52.552;13.436;2022-12-15T05:49:16;100057.19;;;-8.41;100.00
18985;BME280;9626;52.552;13.436;2022-12-15T05:51:44;100065.47;;;-8.48;100.00
18985;BME280;9626;52.552;13.436;2022-12-15T05:54:29;100078.97;;;-8.53;100.00
18985;BME280;9626;52.552;13.436;2022-12-15T05:57:07;100069.44;;;-8.55;100.00
18985;BME280;9626;52.552;13.436;2022-12-15T05:59:34;100082.19;;;-8.57;100.00
18985;BME280;9626;52.552;13.436;2022-12-15T06:02:00;100091.81;;;-8.53;100.00
18985;BME280;9626;52.552;13.436;2022-12-15T06:04:26;100099.81;;;-8.46;100.00
18985;BME280;9626;52.552;13.436;2022-12-15T06:06:52;100102.22;;;-8.50;100.00
18985;BME280;9626;52.552;13.436;2022-12-15T06:09:18;100112.03;;;-8.59;100.00
18985;BME280;9626;52.552;13.436;2022-12-15T06:11:44;100104.13;;;-8.63;100.00
18985;BME280;9626;52.552;13.436;2022-12-15T06:14:10;100099.44;;;-8.72;100.00
18985;BME280;9626;52.552;13.436;2022-12-15T06:16:36;100107.34;;;-8.86;100.00
18985;BME280;9626;52.552;13.436;2022-12-15T06:19:02;100123.69;;;-8.84;100.00
18985;BME280;9626;52.552;13.436;2022-12-15T06:21:31;100118.88;;;-8.77;100.00
18985;BME280;9626;52.552;13.436;2022-12-15T06:23:57;100115.19;;;-8.82;100.00
18985;BME280;9626;52.552;13.436;2022-12-15T06:26:28;100112.63;;;-8.82;100.00
18985;BME280;9626;52.552;13.436;2022-12-15T06:28:57;100116.06;;;-8.82;100.00
18985;BME280;9626;52.552;13.436;2022-12-15T06:31:24;100120.19;;;-8.86;100.00
18985;BME280;9626;52.552;13.436;2022-12-15T06:33:52;100117.47;;;-8.89;100.00
18985;BME280;9626;52.552;13.436;2022-12-15T06:36:18;100126.06;;;-8.88;100.00
18985;BME280;9626;52.552;13.436;2022-12-15T06:38:45;100119.88;;;-8.92;100.00
18985;BME280;9626;52.552;13.436;2022-12-15T06:41:14;100110.84;;;-9.02;100.00
18985;BME280;9626;52.552;13.436;2022-12-15T06:43:41;100126.16;;;-9.03;100.00
18985;BME280;9626;52.552;13.436;2022-12-15T06:46:07;100122.63;;;-9.05;100.00
18985;BME280;9626;52.552;13.436;2022-12-15T06:48:34;100125.38;;;-9.02;100.00
18985;BME280;9626;52.552;13.436;2022-12-15T06:51:02;100122.34;;;-9.11;100.00
18985;BME280;9626;52.552;13.436;2022-12-15T06:53:29;100133.31;;;-9.14;100.00
18985;BME280;9626;52.552;13.436;2022-12-15T06:55:59;100129.31;;;-9.09;100.00
18985;BME280;9626;52.552;13.436;2022-12-15T06:58:26;100137.72;;;-9.11;100.00
18985;BME280;9626;52.552;13.436;2022-12-15T07:00:52;100142.13;;;-9.09;100.00
18985;BME280;9626;52.552;13.436;2022-12-15T07:03:18;100155.75;;;-9.10;100.00
18985;BME280;9626;52.552;13.436;2022-12-15T07:05:45;100162.81;;;-9.06;100.00
18985;BME280;9626;52.552;13.436;2022-12-15T07:08:13;100167.00;;;-9.08;100.00
18985;BME280;9626;52.552;13.436;2022-12-15T07:10:42;100171.72;;;-9.15;100.00
18985;BME280;9626;52.552;13.436;2022-12-15T07:13:10;100172.38;;;-9.20;100.00
18985;BME280;9626;52.552;13.436;2022-12-15T07:15:36;100178.44;;;-9.18;100.00
18985;BME280;9626;52.552;13.436;2022-12-15T07:18:02;100173.88;;;-9.23;100.00
18985;BME280;9626;52.552;13.436;2022-12-15T07:20:29;100183.13;;;-9.27;100.00
18985;BME280;9626;52.552;13.436;2022-12-15T07:22:55;100182.16;;;-9.29;100.00
18985;BME280;9626;52.552;13.436;2022-12-15T07:25:21;100185.50;;;-9.30;100.00
18985;BME280;9626;52.552;13.436;2022-12-15T07:27:47;100188.41;;;-9.24;100.00
18985;BME280;9626;52.552;13.436;2022-12-15T07:30:14;100209.09;;;-9.21;100.00
18985;BME280;9626;52.552;13.436;2022-12-15T07:32:41;100206.94;;;-9.13;100.00
18985;BME280;9626;52.552;13.436;2022-12-15T07:35:09;100216.28;;;-9.30;100.00
18985;BME280;9626;52.552;13.436;2022-12-15T07:37:35;100225.91;;;-9.42;100.00
18985;BME280;9626;52.552;13.436;2022-12-15T07:40:03;100215.19;;;-9.35;100.00
18985;BME280;9626;52.552;13.436;2022-12-15T07:42:30;100220.31;;;-9.02;100.00
18985;BME280;9626;52.552;13.436;2022-12-15T07:44:56;100209.53;;;-8.78;100.00
18985;BME280;9626;52.552;13.436;2022-12-15T07:47:23;100221.31;;;-8.65;100.00
18985;BME280;9626;52.552;13.436;2022-12-15T07:49:49;100222.91;;;-8.50;100.00
18985;BME280;9626;52.552;13.436;2022-12-15T07:52:15;100225.03;;;-8.41;100.00
18985;BME280;9626;52.552;13.436;2022-12-15T07:54:42;100220.00;;;-8.21;100.00
18985;BME280;9626;52.552;13.436;2022-12-15T07:57:08;100216.91;;;-7.96;100.00
18985;BME280;9626;52.552;13.436;2022-12-15T07:59:34;100233.19;;;-7.77;100.00
18985;BME280;9626;52.552;13.436;2022-12-15T08:02:00;100239.75;;;-7.47;100.00
18985;BME280;9626;52.552;13.436;2022-12-15T08:04:29;100231.41;;;-7.60;100.00
18985;BME280;9626;52.552;13.436;2022-12-15T08:06:56;100228.00;;;-7.22;100.00
18985;BME280;9626;52.552;13.436;2022-12-15T08:09:23;100236.97;;;-6.73;100.00
18985;BME280;9626;52.552;13.436;2022-12-15T08:11:50;100237.84;;;-6.53;100.00
18985;BME280;9626;52.552;13.436;2022-12-15T08:14:16;100243.16;;;-6.48;100.00
18985;BME280;9626;52.552;13.436;2022-12-15T08:16:42;100245.63;;;-6.71;100.00
18985;BME280;9626;52.552;13.436;2022-12-15T08:19:11;100243.25;;;-7.26;100.00
18985;BME280;9626;52.552;13.436;2022-12-15T08:21:41;100248.41;;;-7.44;100.00
18985;BME280;9626;52.552;13.436;2022-12-15T08:24:08;100260.63;;;-7.58;100.00
18985;BME280;9626;52.552;13.436;2022-12-15T08:26:35;100260.41;;;-7.45;100.00
18985;BME280;9626;52.552;13.436;2022-12-15T08:29:04;100257.06;;;-6.85;100.00
18985;BME280;9626;52.552;13.436;2022-12-15T08:31:31;100258.44;;;-6.72;100.00
18985;BME280;9626;52.552;13.436;2022-12-15T08:33:59;100257.41;;;-7.17;100.00
18985;BME280;9626;52.552;13.436;2022-12-15T08:36:26;100271.84;;;-7.58;100.00
18985;BME280;9626;52.552;13.436;2022-12-15T08:38:55;100276.34;;;-7.34;100.00
18985;BME280;9626;52.552;13.436;2022-12-15T08:41:27;100274.69;;;-7.32;100.00
18985;BME280;9626;52.552;13.436;2022-12-15T08:43:55;100263.41;;;-7.36;100.00
18985;BME280;9626;52.552;13.436;2022-12-15T08:46:26;100269.03;;;-7.05;100.00
18985;BME280;9626;52.552;13.436;2022-12-15T08:48:53;100280.06;;;-7.08;100.00
18985;BME280;9626;52.552;13.436;2022-12-15T08:51:21;100271.84;;;-7.01;100.00
18985;BME280;9626;52.552;13.436;2022-12-15T08:53:47;100276.81;;;-7.04;100.00
18985;BME280;9626;52.552;13.436;2022-12-15T08:56:16;100276.63;;;-6.89;100.00
18985;BME280;9626;52.552;13.436;2022-12-15T08:58:44;100277.16;;;-6.76;100.00
18985;BME280;9626;52.552;13.436;2022-12-15T09:01:14;100269.97;;;-6.64;100.00
18985;BME280;9626;52.552;13.436;2022-12-15T09:03:42;100276.72;;;-6.47;100.00
18985;BME280;9626;52.552;13.436;2022-12-15T09:06:12;100286.38;;;-6.21;100.00
18985;BME280;9626;52.552;13.436;2022-12-15T09:08:39;100282.75;;;-5.83;100.00
18985;BME280;9626;52.552;13.436;2022-12-15T09:11:06;100288.22;;;-5.96;100.00
18985;BME280;9626;52.552;13.436;2022-12-15T09:13:32;100288.97;;;-6.21;100.00
18985;BME280;9626;52.552;13.436;2022-12-15T09:16:00;100289.88;;;-6.40;100.00
18985;BME280;9626;52.552;13.436;2022-12-15T09:18:27;100278.50;;;-6.46;100.00
18985;BME280;9626;52.552;13.436;2022-12-15T09:20:54;100284.91;;;-6.36;100.00
18985;BME280;9626;52.552;13.436;2022-12-15T09:23:20;100287.69;;;-6.10;100.00
18985;BME280;9626;52.552;13.436;2022-12-15T09:25:47;100292.84;;;-5.66;100.00
18985;BME280;9626;52.552;13.436;2022-12-15T09:28:13;100292.91;;;-5.65;100.00
18985;BME280;9626;52.552;13.436;2022-12-15T09:30:39;100296.00;;;-5.51;100.00
18985;BME280;9626;52.552;13.436;2022-12-15T09:33:05;100297.19;;;-5.65;100.00
18985;BME280;9626;52.552;13.436;2022-12-15T09:35:31;100303.78;;;-5.28;100.00
18985;BME280;9626;52.552;13.436;2022-12-15T09:37:57;100306.34;;;-5.05;100.00
18985;BME280;9626;52.552;13.436;2022-12-15T09:40:24;100306.97;;;-5.79;100.00
18985;BME280;9626;52.552;13.436;2022-12-15T09:42:52;100312.03;;;-5.60;100.00
18985;BME280;9626;52.552;13.436;2022-12-15T09:45:21;100303.81;;;-5.04;100.00
18985;BME280;9626;52.552;13.436;2022-12-15T09:47:57;100301.69;;;-3.92;100.00
18985;BME280;9626;52.552;13.436;2022-12-15T09:50:35;100302.22;;;-2.90;96.16
18985;BME280;9626;52.552;13.436;2022-12-15T09:53:02;100298.19;;;-2.14;80.35
18985;BME280;9626;52.552;13.436;2022-12-15T09:55:31;100296.41;;;-1.44;75.40
18985;BME280;9626;52.552;13.436;2022-12-15T10:00:39;100296.25;;;-0.71;66.02
18985;BME280;9626;52.552;13.436;2022-12-15T10:03:41;100301.59;;;-1.06;65.41
18985;BME280;9626;52.552;13.436;2022-12-15T10:06:20;100300.41;;;-0.80;66.03
18985;BME280;9626;52.552;13.436;2022-12-15T10:08:55;100300.59;;;-0.24;64.07
18985;BME280;9626;52.552;13.436;2022-12-15T10:17:24;100303.69;;;-2.35;70.22
18985;BME280;9626;52.552;13.436;2022-12-15T10:22:25;100309.84;;;-3.52;87.39
18985;BME280;9626;52.552;13.436;2022-12-15T10:24:52;100310.75;;;-4.30;95.28
18985;BME280;9626;52.552;13.436;2022-12-15T10:27:22;100309.22;;;-4.73;100.00
18985;BME280;9626;52.552;13.436;2022-12-15T10:30:00;100313.53;;;-3.98;100.00
18985;BME280;9626;52.552;13.436;2022-12-15T10:35:19;100312.09;;;-2.44;86.48
18985;BME280;9626;52.552;13.436;2022-12-15T10:37:46;100316.84;;;-1.94;81.01
18985;BME280;9626;52.552;13.436;2022-12-15T10:40:18;100312.44;;;-1.98;78.79
18985;BME280;9626;52.552;13.436;2022-12-15T10:42:47;100306.16;;;-2.40;77.77
18985;BME280;9626;52.552;13.436;2022-12-15T10:45:30;100306.69;;;-3.14;86.14
18985;BME280;9626;52.552;13.436;2022-12-15T10:47:58;100309.81;;;-1.65;81.77
18985;BME280;9626;52.552;13.436;2022-12-15T10:50:27;100305.88;;;-0.66;70.50
18985;BME280;9626;52.552;13.436;2022-12-15T10:52:53;100306.59;;;-0.28;65.56
18985;BME280;9626;52.552;13.436;2022-12-15T10:58:06;100317.16;;;-0.20;63.83
18985;BME280;9626;52.552;13.436;2022-12-15T11:00:38;100313.06;;;-0.06;65.38
18985;BME280;9626;52.552;13.436;2022-12-15T11:03:23;100317.34;;;0.43;62.20
18985;BME280;9626;52.552;13.436;2022-12-15T11:05:54;100327.66;;;-1.01;68.35
18985;BME280;9626;52.552;13.436;2022-12-15T11:08:22;100321.25;;;-1.18;72.72
18985;BME280;9626;52.552;13.436;2022-12-15T11:10:54;100331.47;;;-1.26;73.15
18985;BME280;9626;52.552;13.436;2022-12-15T11:13:39;100335.84;;;-0.84;72.11
18985;BME280;9626;52.552;13.436;2022-12-15T11:16:16;100328.25;;;-0.75;69.76
18985;BME280;9626;52.552;13.436;2022-12-15T11:18:54;100335.16;;;-1.15;72.65
18985;BME280;9626;52.552;13.436;2022-12-15T11:21:35;100345.94;;;-0.99;73.39
18985;BME280;9626;52.552;13.436;2022-12-15T11:24:11;100354.88;;;-1.61;76.38
18985;BME280;9626;52.552;13.436;2022-12-15T11:26:55;100356.63;;;-2.59;83.44
18985;BME280;9626;52.552;13.436;2022-12-15T11:29:50;100346.81;;;-3.29;95.77
18985;BME280;9626;52.552;13.436;2022-12-15T11:32:23;100345.97;;;-3.28;100.00
18985;BME280;9626;52.552;13.436;2022-12-15T11:34:50;100341.84;;;-3.23;100.00
18985;BME280;9626;52.552;13.436;2022-12-15T11:40:53;100342.38;;;-3.60;100.00
18985;BME280;9626;52.552;13.436;2022-12-15T11:48:39;100341.91;;;-3.48;100.00
18985;BME280;9626;52.552;13.436;2022-12-15T11:51:22;100347.06;;;-3.48;100.00
18985;BME280;9626;52.552;13.436;2022-12-15T11:54:04;100344.72;;;-3.41;100.00
18985;BME280;9626;52.552;13.436;2022-12-15T11:56:48;100343.22;;;-3.34;100.00
18985;BME280;9626;52.552;13.436;2022-12-15T12:07:39;100332.78;;;-3.35;100.00
18985;BME280;9626;52.552;13.436;2022-12-15T12:17:45;100322.63;;;-3.00;100.00
18985;BME280;9626;52.552;13.436;2022-12-15T12:20:21;100326.50;;;-2.86;100.00
18985;BME280;9626;52.552;13.436;2022-12-15T12:23:01;100332.06;;;-2.42;100.00
18985;BME280;9626;52.552;13.436;2022-12-15T12:25:33;100329.03;;;-1.18;100.00
18985;BME280;9626;52.552;13.436;2022-12-15T12:28:14;100327.59;;;0.33;81.21
18985;BME280;9626;52.552;13.436;2022-12-15T12:30:45;100318.41;;;1.95;67.97
18985;BME280;9626;52.552;13.436;2022-12-15T12:35:56;100315.22;;;0.75;68.10
18985;BME280;9626;52.552;13.436;2022-12-15T12:38:33;100323.16;;;-0.24;77.14
18985;BME280;9626;52.552;13.436;2022-12-15T12:41:09;100325.00;;;-0.17;80.60
18985;BME280;9626;52.552;13.436;2022-12-15T12:43:42;100320.38;;;0.72;73.83
18985;BME280;9626;52.552;13.436;2022-12-15T12:46:22;100329.94;;;0.73;71.86
18985;BME280;9626;52.552;13.436;2022-12-15T12:48:54;100329.84;;;0.12;73.48
18985;BME280;9626;52.552;13.436;2022-12-15T12:51:27;100337.09;;;-0.65;80.94
18985;BME280;9626;52.552;13.436;2022-12-15T12:53:55;100337.50;;;0.03;80.02
18985;BME280;9626;52.552;13.436;2022-12-15T12:56:35;100346.91;;;-0.04;79.65
18985;BME280;9626;52.552;13.436;2022-12-15T12:59:31;100342.72;;;-0.45;79.76
18985;BME280;9626;52.552;13.436;2022-12-15T13:01:50;100346.78;;;-1.39;87.19
18985;BME280;9626;52.552;13.436;2022-12-15T13:09:22;100357.16;;;-1.00;94.27
18985;BME280;9626;52.552;13.436;2022-12-15T13:14:28;100344.00;;;-1.07;93.37
18985;BME280;9626;52.552;13.436;2022-12-15T13:17:02;100346.97;;;-1.31;96.86
18985;BME280;9626;52.552;13.436;2022-12-15T13:20:19;100340.59;;;-1.79;100.00
18985;BME280;9626;52.552;13.436;2022-12-15T13:22:46;100337.91;;;-1.83;100.00
18985;BME280;9626;52.552;13.436;2022-12-15T13:25:38;100335.19;;;-1.88;100.00
18985;BME280;9626;52.552;13.436;2022-12-15T13:46:53;100349.31;;;-1.77;100.00
18985;BME280;9626;52.552;13.436;2022-12-15T13:49:40;100348.19;;;-1.88;100.00
18985;BME280;9626;52.552;13.436;2022-12-15T13:54:53;100348.28;;;-2.17;100.00
18985;BME280;9626;52.552;13.436;2022-12-15T13:57:22;100343.25;;;-2.11;100.00
18985;BME280;9626;52.552;13.436;2022-12-15T13:59:52;100341.56;;;-2.09;100.00
18985;BME280;9626;52.552;13.436;2022-12-15T14:02:28;100345.56;;;-1.88;100.00
18985;BME280;9626;52.552;13.436;2022-12-15T14:07:46;100352.47;;;-1.54;100.00
18985;BME280;9626;52.552;13.436;2022-12-15T14:13:09;100354.03;;;-1.60;100.00
18985;BME280;9626;52.552;13.436;2022-12-15T14:15:40;100354.59;;;-1.37;100.00
18985;BME280;9626;52.552;13.436;2022-12-15T14:20:48;100346.19;;;-1.63;100.00
18985;BME280;9626;52.552;13.436;2022-12-15T14:23:25;100351.03;;;-2.11;100.00
18985;BME280;9626;52.552;13.436;2022-12-15T14:26:01;100349.72;;;-2.28;100.00
18985;BME280;9626;52.552;13.436;2022-12-15T14:28:32;100342.41;;;-2.42;100.00
18985;BME280;9626;52.552;13.436;2022-12-15T14:31:02;100346.66;;;-2.45;100.00
18985;BME280;9626;52.552;13.436;2022-12-15T14:33:32;100346.31;;;-2.58;100.00
18985;BME280;9626;52.552;13.436;2022-12-15T14:36:01;100346.94;;;-2.66;100.00
18985;BME280;9626;52.552;13.436;2022-12-15T14:38:34;100344.06;;;-2.76;100.00
18985;BME280;9626;52.552;13.436;2022-12-15T14:41:02;100346.44;;;-2.83;100.00
18985;BME280;9626;52.552;13.436;2022-12-15T14:43:36;100346.13;;;-2.94;100.00
18985;BME280;9626;52.552;13.436;2022-12-15T14:48:35;100353.53;;;-3.07;100.00
18985;BME280;9626;52.552;13.436;2022-12-15T14:51:03;100363.66;;;-3.14;100.00
18985;BME280;9626;52.552;13.436;2022-12-15T14:53:35;100364.44;;;-3.17;100.00
18985;BME280;9626;52.552;13.436;2022-12-15T14:59:16;100366.13;;;-3.19;100.00
18985;BME280;9626;52.552;13.436;2022-12-15T15:01:57;100364.28;;;-3.23;100.00
18985;BME280;9626;52.552;13.436;2022-12-15T15:04:31;100363.19;;;-3.30;100.00
18985;BME280;9626;52.552;13.436;2022-12-15T15:07:04;100356.91;;;-3.38;100.00